createdAt,value
2024-01-26T00:01:42.783Z,91.12
2024-01-26T00:04:46.988Z,91.47
2024-01-26T00:07:49.945Z,91.64
2024-01-26T00:10:52.958Z,91.76
2024-01-26T00:13:55.701Z,91.56
2024-01-26T00:16:58.443Z,91.47
2024-01-26T00:20:02.598Z,91.41
2024-01-26T00:23:05.507Z,91.81
2024-01-26T00:26:08.295Z,91.95
2024-01-26T00:29:11.031Z,91.87
2024-01-26T00:32:13.830Z,91.96
2024-01-26T00:35:18.177Z,92.51
2024-01-26T00:38:21.448Z,92.47
2024-01-26T00:41:24.344Z,93.01
2024-01-26T00:44:27.440Z,92.75
2024-01-26T00:47:30.240Z,92.29
2024-01-26T00:50:34.454Z,92.39
2024-01-26T00:53:37.248Z,92.16
2024-01-26T00:56:40.088Z,92.40
2024-01-26T00:59:42.831Z,92.35
2024-01-26T01:02:45.725Z,92.66
2024-01-26T01:05:49.999Z,92.65
2024-01-26T01:08:52.852Z,92.87
2024-01-26T01:11:55.741Z,93.28
2024-01-26T01:15:00.094Z,93.41
2024-01-26T01:18:03.147Z,93.92
2024-01-26T01:21:07.667Z,94.26
2024-01-26T01:24:10.459Z,94.38
2024-01-26T01:27:13.286Z,94.30
2024-01-26T01:30:16.140Z,94.53
2024-01-26T01:33:19.168Z,94.84
2024-01-26T01:36:23.443Z,94.84
2024-01-26T01:39:26.279Z,95.03
2024-01-26T01:42:29.064Z,94.55
2024-01-26T01:45:31.967Z,94.44
2024-01-26T01:48:35.101Z,94.37
2024-01-26T01:51:40.553Z,94.07
2024-01-26T01:54:43.696Z,93.83
2024-01-26T01:57:48.914Z,93.95
2024-01-26T02:00:52.117Z,93.06
2024-01-26T02:03:55.613Z,92.81
2024-01-26T02:07:01.399Z,93.12
2024-01-26T02:10:05.394Z,92.70
2024-01-26T02:13:08.423Z,92.88
2024-01-26T02:16:11.207Z,93.12
2024-01-26T02:19:16.366Z,93.62
2024-01-26T02:22:20.684Z,93.60
2024-01-26T02:25:24.809Z,93.45
2024-01-26T02:28:27.820Z,93.61
2024-01-26T02:31:31.036Z,93.38
2024-01-26T02:34:33.888Z,93.34
2024-01-26T02:37:36.699Z,93.84
2024-01-26T02:40:40.806Z,93.94
2024-01-26T02:43:43.549Z,93.92
2024-01-26T02:46:48.068Z,94.12
2024-01-26T02:49:50.891Z,94.11
2024-01-26T02:52:53.702Z,94.11
2024-01-26T02:55:57.793Z,94.59
2024-01-26T02:59:01.635Z,94.40
2024-01-26T03:02:04.518Z,94.60
2024-01-26T03:05:08.492Z,94.74
2024-01-26T03:08:11.293Z,94.11
2024-01-26T03:11:15.453Z,94.14
2024-01-26T03:14:19.835Z,93.84
2024-01-26T03:17:22.623Z,93.80
2024-01-26T03:20:25.562Z,93.68
2024-01-26T03:23:28.363Z,93.69
2024-01-26T03:26:32.588Z,93.91
2024-01-26T03:29:35.367Z,94.20
2024-01-26T03:32:38.308Z,94.28
2024-01-26T03:35:41.196Z,94.84
2024-01-26T03:38:43.933Z,95.05
2024-01-26T03:41:48.118Z,95.14
2024-01-26T03:44:50.989Z,95.55
2024-01-26T03:47:53.800Z,95.56
2024-01-26T03:50:56.651Z,95.62
2024-01-26T03:54:00.699Z,95.62
2024-01-26T03:57:06.626Z,96.04
2024-01-26T04:00:11.537Z,96.78
2024-01-26T04:03:14.538Z,96.56
2024-01-26T04:06:18.382Z,96.53
2024-01-26T04:09:21.194Z,96.91
2024-01-26T04:12:25.363Z,96.57
2024-01-26T04:15:28.105Z,96.68
2024-01-26T04:18:30.928Z,96.57
2024-01-26T04:21:34.075Z,96.77
2024-01-26T04:24:37.293Z,96.65
2024-01-26T04:27:41.794Z,96.66
2024-01-26T04:30:44.715Z,96.36
2024-01-26T04:33:47.576Z,96.33
2024-01-26T04:36:50.908Z,96.34
2024-01-26T04:39:53.735Z,96.14
2024-01-26T04:42:57.855Z,96.01
2024-01-26T04:46:00.665Z,95.80
2024-01-26T04:49:03.618Z,95.99
2024-01-26T04:52:06.769Z,95.77
2024-01-26T04:55:10.514Z,95.19
2024-01-26T04:58:14.674Z,95.21
2024-01-26T05:01:17.483Z,95.87
2024-01-26T05:04:20.637Z,95.41
2024-01-26T05:07:23.838Z,95.12
2024-01-26T05:10:26.670Z,95.26
2024-01-26T05:13:30.894Z,95.21
2024-01-26T05:16:33.662Z,95.64
2024-01-26T05:19:36.466Z,95.75
2024-01-26T05:22:39.319Z,95.56
2024-01-26T05:25:43.144Z,95.82
2024-01-26T05:28:47.734Z,95.83
2024-01-26T05:31:50.746Z,96.01
2024-01-26T05:34:53.653Z,95.68
2024-01-26T05:37:56.436Z,95.92
2024-01-26T05:40:59.244Z,95.43
2024-01-26T05:44:03.414Z,95.51
2024-01-26T05:47:06.440Z,95.67
2024-01-26T05:50:10.059Z,95.87
2024-01-26T05:53:13.017Z,95.77
2024-01-26T05:56:16.706Z,96.06
2024-01-26T05:59:21.025Z,96.01
2024-01-26T06:02:23.869Z,95.86
2024-01-26T06:05:26.686Z,96.18
2024-01-26T06:08:29.489Z,95.98
2024-01-26T06:11:34.363Z,95.99
2024-01-26T06:14:38.894Z,95.79
2024-01-26T06:17:42.049Z,95.68
2024-01-26T06:20:45.237Z,95.99
2024-01-26T06:23:48.177Z,96.23
2024-01-26T06:26:51.044Z,96.44
2024-01-26T06:29:55.334Z,96.25
2024-01-26T06:32:58.207Z,96.45
2024-01-26T06:36:01.111Z,96.80
2024-01-26T06:39:04.603Z,96.77
2024-01-26T06:42:08.176Z,96.69
2024-01-26T06:45:14.619Z,96.48
2024-01-26T06:48:17.540Z,96.90
2024-01-26T06:51:20.847Z,96.65
2024-01-26T06:54:23.718Z,96.62
2024-01-26T06:57:26.526Z,96.99
2024-01-26T07:00:31.165Z,97.21
2024-01-26T07:03:34.189Z,97.05
2024-01-26T07:06:37.106Z,97.17
2024-01-26T07:09:40.062Z,97.16
2024-01-26T07:12:43.421Z,97.36
2024-01-26T07:15:47.867Z,97.47
2024-01-26T07:18:50.910Z,97.32
2024-01-26T07:21:53.900Z,97.41
2024-01-26T07:24:56.680Z,97.45
2024-01-26T07:27:59.488Z,97.16
2024-01-26T07:31:03.639Z,97.14
2024-01-26T07:34:06.820Z,97.57
2024-01-26T07:37:09.836Z,97.40
2024-01-26T07:40:13.030Z,97.83
2024-01-26T07:43:16.396Z,97.95
2024-01-26T07:46:20.559Z,97.86
2024-01-26T07:49:23.600Z,97.84
2024-01-26T07:52:26.527Z,97.77
2024-01-26T07:55:29.298Z,97.35
2024-01-26T07:58:32.316Z,97.51
2024-01-26T08:01:37.010Z,97.57
2024-01-26T08:04:39.988Z,97.52
2024-01-26T08:07:42.855Z,97.64
2024-01-26T08:10:46.062Z,97.51
2024-01-26T08:13:48.832Z,97.13
2024-01-26T08:16:53.231Z,96.98
2024-01-26T08:19:56.239Z,96.82
2024-01-26T08:22:59.085Z,96.81
2024-01-26T08:26:03.056Z,96.43
2024-01-26T08:29:06.090Z,96.15
2024-01-26T08:32:10.290Z,95.96
2024-01-26T08:35:13.700Z,96.22
2024-01-26T08:38:16.701Z,96.05
2024-01-26T08:41:20.019Z,95.23
2024-01-26T08:44:22.730Z,95.27
2024-01-26T08:47:26.865Z,94.71
2024-01-26T08:50:29.623Z,94.26
2024-01-26T08:53:32.422Z,94.32
2024-01-26T08:56:35.503Z,93.79
2024-01-26T08:59:38.468Z,93.95
2024-01-26T09:02:43.033Z,93.39
2024-01-26T09:05:45.983Z,93.37
2024-01-26T09:08:48.822Z,92.95
2024-01-26T09:11:53.160Z,92.68
2024-01-26T09:14:56.111Z,92.75
2024-01-26T09:18:02.254Z,92.58
2024-01-26T09:21:05.629Z,92.24
2024-01-26T09:24:09.129Z,92.44
2024-01-26T09:27:12.026Z,92.21
2024-01-26T09:30:15.388Z,92.27
2024-01-26T09:33:19.631Z,91.96
2024-01-26T09:36:22.464Z,91.95
2024-01-26T09:39:25.375Z,91.88
2024-01-26T09:42:28.286Z,92.11
2024-01-26T09:45:31.192Z,92.32
2024-01-26T09:48:35.947Z,92.49
2024-01-26T09:51:40.113Z,92.21
2024-01-26T09:54:43.496Z,92.41
2024-01-26T09:57:46.663Z,92.53
2024-01-26T10:00:50.062Z,92.34
2024-01-26T10:03:57.383Z,92.21
2024-01-26T10:07:00.830Z,92.49
2024-01-26T10:10:04.560Z,92.74
2024-01-26T10:13:08.314Z,92.55
2024-01-26T10:16:14.352Z,92.59
2024-01-26T10:19:24.647Z,92.92
2024-01-26T10:22:27.840Z,92.87
2024-01-26T10:25:31.285Z,93.37
2024-01-26T10:28:34.156Z,93.25
2024-01-26T10:31:37.272Z,93.50
2024-01-26T10:34:42.986Z,93.48
2024-01-26T10:37:48.011Z,93.80
2024-01-26T10:40:59.971Z,93.82
2024-01-26T10:44:04.356Z,94.12
2024-01-26T10:47:10.193Z,93.88
2024-01-26T10:50:14.614Z,94.23
2024-01-26T10:53:18.419Z,94.37
2024-01-26T10:56:21.622Z,94.36
2024-01-26T10:59:25.821Z,94.67
2024-01-26T11:02:33.485Z,94.75
2024-01-26T11:05:38.042Z,94.81
2024-01-26T11:08:42.229Z,94.72
2024-01-26T11:11:45.031Z,95.30
2024-01-26T11:14:49.364Z,95.27
2024-01-26T11:17:53.723Z,95.58
2024-01-26T11:21:03.451Z,95.41
2024-01-26T11:24:15.966Z,95.61
2024-01-26T11:27:18.996Z,95.58
2024-01-26T11:30:23.829Z,95.66
2024-01-26T11:33:27.301Z,95.51
2024-01-26T11:36:34.909Z,95.96
2024-01-26T11:39:38.780Z,95.49
2024-01-26T11:42:42.594Z,96.07
2024-01-26T11:45:46.595Z,95.64
2024-01-26T11:48:49.538Z,95.70
2024-01-26T11:51:54.719Z,95.67
2024-01-26T11:55:00.049Z,95.43
2024-01-26T11:58:03.510Z,95.43
2024-01-26T12:01:07.768Z,95.45
2024-01-26T12:04:11.113Z,95.41
2024-01-26T12:07:15.715Z,95.56
2024-01-26T12:10:18.536Z,95.49
2024-01-26T12:13:22.004Z,95.83
2024-01-26T12:16:24.834Z,96.06
2024-01-26T12:19:28.515Z,95.83
2024-01-26T12:22:35.782Z,95.98
2024-01-26T12:25:38.848Z,96.17
2024-01-26T12:28:42.635Z,96.09
2024-01-26T12:31:45.399Z,95.67
2024-01-26T12:34:48.957Z,95.54
2024-01-26T12:37:53.313Z,95.37
2024-01-26T12:40:56.525Z,95.46
2024-01-26T12:43:59.336Z,95.13
2024-01-26T12:47:04.561Z,95.32
2024-01-26T12:50:08.588Z,94.95
2024-01-26T12:53:12.894Z,94.89
2024-01-26T12:56:15.779Z,94.43
2024-01-26T12:59:19.150Z,94.51
2024-01-26T13:02:22.331Z,94.64
2024-01-26T13:05:25.852Z,94.74
2024-01-26T13:08:30.272Z,94.71
2024-01-26T13:11:33.165Z,93.93
2024-01-26T13:14:36.112Z,94.03
2024-01-26T13:17:39.283Z,93.83
2024-01-26T13:20:42.538Z,93.76
2024-01-26T13:23:46.798Z,93.31
2024-01-26T13:26:50.322Z,93.32
2024-01-26T13:29:53.223Z,92.71
2024-01-26T13:32:56.491Z,92.29
2024-01-26T13:35:59.532Z,92.19
2024-01-26T13:39:07.498Z,91.95
2024-01-26T13:42:10.622Z,92.40
2024-01-26T13:45:14.613Z,91.98
2024-01-26T13:48:17.954Z,92.35
2024-01-26T13:51:20.966Z,92.17
2024-01-26T13:54:25.192Z,91.57
2024-01-26T13:57:29.788Z,92.16
2024-01-26T14:00:32.890Z,92.33
2024-01-26T14:03:36.027Z,92.69
2024-01-26T14:06:39.169Z,92.92
2024-01-26T14:09:43.668Z,93.07
2024-01-26T14:12:46.702Z,92.71
2024-01-26T14:15:49.942Z,93.09
2024-01-26T14:18:53.037Z,93.71
2024-01-26T14:21:56.798Z,93.93
2024-01-26T14:25:01.282Z,93.77
2024-01-26T14:28:04.747Z,94.20
2024-01-26T14:31:07.604Z,94.07
2024-01-26T14:34:11.325Z,94.63
2024-01-26T14:37:14.230Z,95.14
2024-01-26T14:40:19.228Z,95.49
2024-01-26T14:43:22.178Z,95.41
2024-01-26T14:46:26.344Z,96.04
2024-01-26T14:49:30.356Z,96.07
2024-01-26T14:52:34.215Z,95.66
2024-01-26T14:55:38.475Z,95.92
2024-01-26T14:58:41.272Z,95.15
2024-01-26T15:01:44.247Z,94.49
2024-01-26T15:04:47.128Z,94.84
2024-01-26T15:07:51.224Z,95.11
2024-01-26T15:10:59.199Z,94.28
2024-01-26T15:14:02.277Z,94.70
2024-01-26T15:17:05.475Z,95.17
2024-01-26T15:20:10.345Z,94.98
2024-01-26T15:23:13.492Z,94.43
2024-01-26T15:26:17.710Z,93.25
2024-01-26T15:29:21.063Z,92.93
2024-01-26T15:32:24.007Z,91.45
2024-01-26T15:35:27.128Z,90.13
2024-01-26T15:38:30.026Z,89.47
2024-01-26T15:41:35.846Z,89.41
2024-01-26T15:44:41.567Z,87.32
2024-01-26T15:47:45.066Z,86.99
2024-01-26T15:50:48.161Z,85.19
2024-01-26T15:53:51.004Z,80.56
2024-01-26T15:56:55.221Z,81.90
2024-01-26T15:59:58.131Z,82.22
2024-01-26T16:03:01.094Z,80.70
2024-01-26T16:06:04.159Z,81.76
2024-01-26T16:09:07.156Z,81.23
2024-01-26T16:12:13.435Z,81.26
2024-01-26T16:15:16.638Z,81.86
2024-01-26T16:18:19.730Z,81.28
2024-01-26T16:21:22.986Z,80.86
2024-01-26T16:24:25.971Z,80.81
2024-01-26T16:27:30.179Z,79.14
2024-01-26T16:30:33.664Z,79.63
2024-01-26T16:33:36.664Z,78.74
2024-01-26T16:36:39.949Z,78.50
2024-01-26T16:39:42.805Z,78.04
2024-01-26T16:42:47.005Z,76.71
2024-01-26T16:45:49.988Z,73.25
2024-01-26T16:48:53.108Z,70.50
2024-01-26T16:52:00.524Z,68.72
2024-01-26T16:55:03.356Z,68.16
2024-01-26T16:58:07.599Z,67.32
2024-01-26T17:01:14.750Z,63.03
2024-01-26T17:04:19.813Z,64.02
2024-01-26T17:07:22.801Z,62.89
2024-01-26T17:10:25.801Z,64.79
2024-01-26T17:13:30.459Z,64.02
2024-01-26T17:16:34.142Z,62.86
2024-01-26T17:19:38.306Z,62.69
2024-01-26T17:22:41.471Z,63.70
2024-01-26T17:25:44.319Z,61.09
2024-01-26T17:28:48.822Z,62.61
2024-01-26T17:31:51.695Z,60.90
2024-01-26T17:34:54.622Z,62.41
2024-01-26T17:37:57.552Z,63.75
2024-01-26T17:41:00.461Z,64.31
2024-01-26T17:44:05.135Z,63.69
2024-01-26T17:47:07.944Z,63.91
2024-01-26T17:50:11.420Z,63.71
2024-01-26T17:53:14.515Z,64.88
2024-01-26T17:56:17.260Z,64.38
2024-01-26T17:59:21.811Z,65.23
2024-01-26T18:02:27.145Z,65.83
2024-01-26T18:05:30.859Z,66.11
2024-01-26T18:08:33.804Z,66.08
2024-01-26T18:11:37.242Z,65.99
2024-01-26T18:14:41.560Z,64.96
2024-01-26T18:17:44.678Z,66.61
2024-01-26T18:20:47.899Z,67.38
2024-01-26T18:23:50.788Z,68.82
2024-01-26T18:26:53.592Z,69.14
2024-01-26T18:29:57.811Z,69.56
2024-01-26T18:33:01.372Z,69.94
2024-01-26T18:36:07.602Z,70.75
2024-01-26T18:39:13.699Z,71.07
2024-01-26T18:42:16.645Z,71.46
2024-01-26T18:45:21.473Z,71.68
2024-01-26T18:48:24.582Z,72.07
2024-01-26T18:51:27.619Z,72.30
2024-01-26T18:54:30.638Z,72.37
2024-01-26T18:57:33.503Z,72.84
2024-01-26T19:00:38.605Z,73.15
2024-01-26T19:03:41.928Z,73.38
2024-01-26T19:06:45.348Z,73.69
2024-01-26T19:09:48.221Z,73.67
2024-01-26T19:12:53.901Z,73.91
2024-01-26T19:16:01.750Z,73.95
2024-01-26T19:19:05.267Z,73.50
2024-01-26T19:22:08.183Z,73.22
2024-01-26T19:25:11.477Z,72.63
2024-01-26T19:28:14.399Z,72.82
2024-01-26T19:31:18.678Z,72.23
2024-01-26T19:34:22.169Z,72.09
2024-01-26T19:37:25.049Z,72.26
2024-01-26T19:40:28.001Z,72.95
2024-01-26T19:43:31.278Z,72.76
2024-01-26T19:46:35.439Z,72.93
2024-01-26T19:49:38.800Z,73.15
2024-01-26T19:52:45.040Z,73.05
2024-01-26T19:55:50.290Z,72.08
2024-01-26T19:58:54.590Z,72.25
2024-01-26T20:01:58.811Z,71.92
2024-01-26T20:05:01.965Z,72.24
2024-01-26T20:08:05.119Z,71.92
2024-01-26T20:11:08.489Z,71.89
2024-01-26T20:14:11.428Z,71.87
2024-01-26T20:17:17.276Z,72.11
2024-01-26T20:20:20.844Z,72.64
2024-01-26T20:23:26.422Z,72.71
2024-01-26T20:26:30.021Z,71.93
2024-01-26T20:29:33.023Z,71.88
2024-01-26T20:32:38.773Z,72.04
2024-01-26T20:35:42.236Z,72.35
2024-01-26T20:38:45.889Z,72.34
2024-01-26T20:41:52.638Z,72.82
2024-01-26T20:44:55.806Z,72.75
2024-01-26T20:48:01.510Z,72.37
2024-01-26T20:51:04.713Z,71.65
2024-01-26T20:54:08.095Z,70.75
2024-01-26T20:57:11.110Z,71.02
2024-01-26T21:00:16.182Z,71.44
2024-01-26T21:03:20.568Z,71.20
2024-01-26T21:06:23.522Z,71.17
2024-01-26T21:09:26.602Z,71.22
2024-01-26T21:12:29.557Z,71.83
2024-01-26T21:15:32.905Z,72.26
2024-01-26T21:18:37.637Z,72.58
2024-01-26T21:21:40.685Z,72.35
2024-01-26T21:24:43.910Z,72.24
2024-01-26T21:27:46.823Z,72.12
2024-01-26T21:30:51.361Z,72.33
2024-01-26T21:33:55.640Z,72.17
2024-01-26T21:36:58.654Z,71.40
2024-01-26T21:40:02.483Z,69.37
2024-01-26T21:43:06.545Z,69.63
2024-01-26T21:46:09.700Z,69.27
2024-01-26T21:49:15.394Z,69.17
2024-01-26T21:52:20.380Z,68.90
2024-01-26T21:55:23.990Z,68.83
2024-01-26T21:58:26.792Z,68.81
2024-01-26T22:01:29.964Z,69.37
2024-01-26T22:04:34.307Z,69.63
2024-01-26T22:07:37.314Z,69.97
2024-01-26T22:10:40.888Z,70.38
2024-01-26T22:13:43.848Z,70.33
2024-01-26T22:16:46.618Z,70.25
2024-01-26T22:19:51.157Z,69.96
2024-01-26T22:22:54.141Z,69.73
2024-01-26T22:25:58.254Z,69.38
2024-01-26T22:29:01.573Z,69.47
2024-01-26T22:32:04.727Z,69.63
2024-01-26T22:35:09.515Z,69.01
2024-01-26T22:38:12.264Z,68.31
2024-01-26T22:41:15.341Z,69.29
2024-01-26T22:44:18.138Z,68.96
2024-01-26T22:47:20.918Z,68.86
2024-01-26T22:50:25.759Z,69.30
2024-01-26T22:53:28.544Z,69.53
2024-01-26T22:56:31.311Z,70.42
2024-01-26T22:59:34.206Z,70.46
2024-01-26T23:02:39.083Z,70.59
2024-01-26T23:05:45.070Z,71.06
2024-01-26T23:08:48.190Z,71.40
2024-01-26T23:11:51.175Z,71.69
2024-01-26T23:14:54.000Z,71.50
2024-01-26T23:17:57.158Z,71.38
2024-01-26T23:21:01.759Z,71.18
2024-01-26T23:24:04.717Z,71.47
2024-01-26T23:27:07.909Z,71.75
2024-01-26T23:30:11.318Z,71.50
2024-01-26T23:33:14.283Z,71.98
2024-01-26T23:36:18.530Z,71.93
2024-01-26T23:39:21.357Z,72.35
2024-01-26T23:42:24.144Z,71.74
2024-01-26T23:45:28.623Z,71.97
2024-01-26T23:48:31.773Z,71.29
2024-01-26T23:51:36.084Z,71.68
2024-01-26T23:54:40.659Z,71.81
2024-01-26T23:57:43.923Z,71.97
